Time;durP1;ratioP1;P1;durP2;ratioP2;P2;SDS_P1;SDS_P2;PMS_P1;PMS_P2;Temp;Humidity;BMP_temperature;BMP_pressure;BME280_temperature;BME280_humidity;BME280_pressure;Samples;Min_cycle;Max_cycle;Signal;HPM_P1;HPM_P2
2021/12/01 00:00:17;;;;;;;0.30;0.30;;;15.50;27.80;;;;;;5117259;27;20213;-69
2021/12/01 00:02:44;;;;;;;0.30;0.30;;;15.50;27.80;;;;;;5117195;28;20540;-68
2021/12/01 00:05:12;;;;;;;0.30;0.30;;;15.40;27.80;;;;;;5117128;28;20210;-67
2021/12/01 00:07:40;;;;;;;0.85;0.28;;;15.40;27.90;;;;;;5118198;28;20539;-69
2021/12/01 00:10:10;;;;;;;0.40;0.32;;;15.40;27.70;;;;;;5118404;28;20301;-67
2021/12/01 00:12:37;;;;;;;1.00;0.30;;;15.50;27.70;;;;;;5118249;28;20544;-68
2021/12/01 00:15:06;;;;;;;0.30;0.20;;;15.40;27.90;;;;;;5117690;28;20203;-70
2021/12/01 00:17:34;;;;;;;0.40;0.40;;;15.40;27.80;;;;;;5117845;28;20286;-70
2021/12/01 00:20:01;;;;;;;0.30;0.30;;;15.40;27.70;;;;;;5117586;28;20207;-68
2021/12/01 00:22:29;;;;;;;0.30;0.30;;;15.40;27.90;;;;;;5117453;28;20218;-69
2021/12/01 00:24:57;;;;;;;0.40;0.40;;;15.40;27.80;;;;;;5117561;28;20203;-68
2021/12/01 00:27:26;;;;;;;0.30;0.30;;;15.40;28.10;;;;;;5118957;28;20484;-69
2021/12/01 00:29:53;;;;;;;0.40;0.40;;;15.40;27.90;;;;;;5117897;28;20230;-69
2021/12/01 00:32:21;;;;;;;0.32;0.30;;;15.30;27.80;;;;;;5117945;28;20255;-69
2021/12/01 00:34:48;;;;;;;0.20;0.20;;;15.30;27.80;;;;;;5117948;28;20203;-69
2021/12/01 00:37:17;;;;;;;0.20;0.20;;;15.30;27.70;;;;;;5118089;28;20467;-70
2021/12/01 00:39:45;;;;;;;0.57;0.30;;;15.30;27.90;;;;;;5117083;28;20665;-69
2021/12/01 00:42:12;;;;;;;0.40;0.30;;;15.30;27.80;;;;;;5117433;28;20214;-70
2021/12/01 00:44:46;;;;;;;0.30;0.30;;;15.30;27.80;;;;;;5117129;28;20589;-69
2021/12/01 00:47:14;;;;;;;0.20;0.20;;;15.30;27.90;;;;;;5117865;28;20202;-69
2021/12/01 00:49:43;;;;;;;0.20;0.20;;;15.30;27.80;;;;;;5117845;28;20226;-69
2021/12/01 00:52:10;;;;;;;0.38;0.30;;;15.30;27.70;;;;;;5117594;28;20531;-70
2021/12/01 00:54:38;;;;;;;0.20;0.20;;;15.30;28.00;;;;;;5117311;28;20203;-69
2021/12/01 00:57:06;;;;;;;0.40;0.20;;;15.20;27.70;;;;;;5116948;28;20566;-70
2021/12/01 00:59:34;;;;;;;0.73;0.30;;;15.20;27.90;;;;;;5117052;28;20205;-70
2021/12/01 01:02:03;;;;;;;0.30;0.30;;;15.20;27.60;;;;;;5117245;28;20499;-70
2021/12/01 01:04:31;;;;;;;0.40;0.35;;;15.20;27.80;;;;;;5117190;28;20574;-69
2021/12/01 01:06:58;;;;;;;0.30;0.30;;;15.20;28.00;;;;;;5117173;28;20202;-69
2021/12/01 01:09:31;;;;;;;0.63;0.30;;;15.20;27.80;;;;;;5116663;28;20219;-70
2021/12/01 01:17:37;;;;;;;0.30;0.30;;;15.20;27.70;;;;;;5116634;28;20198;-69
2021/12/01 01:20:08;;;;;;;0.30;0.30;;;15.20;27.90;;;;;;5117729;28;20237;-69
2021/12/01 01:22:35;;;;;;;0.20;0.20;;;15.10;27.80;;;;;;5116618;28;20207;-69
2021/12/01 01:25:03;;;;;;;0.30;0.30;;;15.10;27.80;;;;;;5117449;28;20207;-70
2021/12/01 01:27:31;;;;;;;0.15;0.15;;;15.10;27.80;;;;;;5116939;28;20214;-70
2021/12/01 01:29:59;;;;;;;0.30;0.20;;;15.10;27.80;;;;;;5117322;28;20234;-70
2021/12/01 01:32:27;;;;;;;0.20;0.20;;;15.10;27.70;;;;;;5117149;28;20239;-70
2021/12/01 01:34:56;;;;;;;0.55;0.20;;;15.10;27.80;;;;;;5117690;28;20246;-69
2021/12/01 01:37:23;;;;;;;0.25;0.20;;;15.10;27.80;;;;;;5117221;28;20210;-70
2021/12/01 01:39:51;;;;;;;0.22;0.22;;;15.00;27.90;;;;;;5116835;28;20495;-69
2021/12/01 01:42:18;;;;;;;0.30;0.28;;;15.00;27.80;;;;;;5116767;28;20214;-69
2021/12/01 01:44:46;;;;;;;0.30;0.22;;;15.10;27.80;;;;;;5117028;28;20206;-69
2021/12/01 01:47:13;;;;;;;0.50;0.20;;;15.00;27.70;;;;;;5117221;28;20202;-69
2021/12/01 01:49:48;;;;;;;1.05;0.30;;;15.00;27.90;;;;;;5116477;28;20227;-74
2021/12/01 01:52:17;;;;;;;0.20;0.20;;;15.00;27.80;;;;;;5117502;28;20214;-69
2021/12/01 01:54:45;;;;;;;0.30;0.20;;;15.00;27.70;;;;;;5117660;28;20480;-69
2021/12/01 01:57:12;;;;;;;0.30;0.20;;;15.00;27.80;;;;;;5118174;28;20231;-69
2021/12/01 01:59:39;;;;;;;0.10;0.10;;;15.00;27.80;;;;;;5121059;28;20252;-70
2021/12/01 02:02:08;;;;;;;0.30;0.10;;;15.00;27.70;;;;;;5121149;28;20206;-69
2021/12/01 02:04:36;;;;;;;0.20;0.20;;;15.00;27.80;;;;;;5121048;28;20254;-70
2021/12/01 02:07:05;;;;;;;0.32;0.20;;;15.00;27.70;;;;;;5121521;28;20203;-69
2021/12/01 02:09:34;;;;;;;0.20;0.20;;;14.90;27.80;;;;;;5121107;28;20231;-70
2021/12/01 02:12:03;;;;;;;0.30;0.30;;;14.90;27.70;;;;;;5120509;28;20209;-70
2021/12/01 02:14:32;;;;;;;0.30;0.30;;;14.90;27.80;;;;;;5120906;28;20210;-70
2021/12/01 02:17:00;;;;;;;0.20;0.20;;;14.90;27.80;;;;;;5121134;28;20202;-69
2021/12/01 02:19:28;;;;;;;1.02;0.20;;;14.90;27.80;;;;;;5121529;28;20199;-69
2021/12/01 02:21:57;;;;;;;0.50;0.20;;;14.90;27.80;;;;;;5120464;28;20606;-70
2021/12/01 02:24:25;;;;;;;0.20;0.20;;;14.90;28.00;;;;;;5121148;28;20489;-70
2021/12/01 02:26:54;;;;;;;0.20;0.20;;;14.90;27.80;;;;;;5121072;28;20226;-70
2021/12/01 02:29:24;;;;;;;0.20;0.20;;;14.90;27.80;;;;;;5120820;28;20243;-69
2021/12/01 02:31:52;;;;;;;0.30;0.20;;;14.80;27.70;;;;;;5120638;28;20250;-70
2021/12/01 02:34:22;;;;;;;0.20;0.20;;;14.80;27.80;;;;;;5120513;28;20213;-70
2021/12/01 02:36:52;;;;;;;0.25;0.20;;;14.80;27.80;;;;;;5120176;28;20195;-69
2021/12/01 02:39:22;;;;;;;0.20;0.20;;;14.80;27.80;;;;;;5100083;28;20257;-69
2021/12/01 02:41:53;;;;;;;0.28;0.28;;;14.80;27.80;;;;;;5099888;28;20213;-69
2021/12/01 02:44:21;;;;;;;0.32;0.20;;;14.80;27.80;;;;;;5099532;28;20203;-70
2021/12/01 02:46:49;;;;;;;0.10;0.10;;;14.80;27.80;;;;;;5099058;28;20208;-70
2021/12/01 02:49:20;;;;;;;0.20;0.20;;;14.80;27.80;;;;;;5099645;28;20237;-70
2021/12/01 02:51:48;;;;;;;0.28;0.28;;;14.80;27.80;;;;;;5100197;28;20602;-69
2021/12/01 02:54:16;;;;;;;0.17;0.17;;;14.70;27.80;;;;;;5099457;28;20215;-69
2021/12/01 02:56:49;;;;;;;0.30;0.30;;;14.80;27.80;;;;;;5114593;28;20586;-67
2021/12/01 02:59:17;;;;;;;0.20;0.20;;;14.80;27.80;;;;;;5119542;28;20203;-67
2021/12/01 03:01:45;;;;;;;0.20;0.20;;;14.80;27.80;;;;;;5120371;28;20203;-69
2021/12/01 03:04:15;;;;;;;0.20;0.20;;;14.70;27.80;;;;;;5120021;28;20210;-69
2021/12/01 03:06:46;;;;;;;0.20;0.20;;;14.70;27.80;;;;;;5119981;27;20586;-69
2021/12/01 03:09:14;;;;;;;0.20;0.20;;;14.70;27.80;;;;;;5119829;28;20313;-69
2021/12/01 03:11:42;;;;;;;0.20;0.20;;;14.70;27.80;;;;;;5120101;28;20207;-69
2021/12/01 03:14:12;;;;;;;0.20;0.20;;;14.70;27.80;;;;;;5119762;28;20594;-67
2021/12/01 03:16:40;;;;;;;0.20;0.20;;;14.70;27.90;;;;;;5119859;28;20211;-67
2021/12/01 03:19:07;;;;;;;0.50;0.30;;;14.70;27.90;;;;;;5119827;28;20199;-67
2021/12/01 03:21:36;;;;;;;0.98;0.20;;;14.70;27.80;;;;;;5119092;28;20507;-67
2021/12/01 03:24:04;;;;;;;0.20;0.20;;;14.70;27.90;;;;;;5119190;28;20215;-67
2021/12/01 03:26:33;;;;;;;0.22;0.20;;;14.60;27.70;;;;;;5119585;28;20566;-70
2021/12/01 03:29:00;;;;;;;0.10;0.10;;;14.60;27.80;;;;;;5119461;28;20222;-67
2021/12/01 03:31:29;;;;;;;0.20;0.20;;;14.60;27.80;;;;;;5119800;28;20594;-67
2021/12/01 03:33:57;;;;;;;0.20;0.20;;;14.60;27.80;;;;;;5119218;28;20207;-67
2021/12/01 03:36:24;;;;;;;0.17;0.17;;;14.60;27.90;;;;;;5119465;28;20203;-68
2021/12/01 03:38:51;;;;;;;0.20;0.20;;;14.60;27.80;;;;;;5119408;28;20242;-70
2021/12/01 03:41:18;;;;;;;0.20;0.20;;;14.60;27.90;;;;;;5119376;28;20207;-70
2021/12/01 03:43:46;;;;;;;0.20;0.20;;;14.50;27.80;;;;;;5119087;28;20202;-67
2021/12/01 03:46:16;;;;;;;0.20;0.20;;;14.50;27.80;;;;;;5119164;28;20203;-67
2021/12/01 03:48:45;;;;;;;0.25;0.22;;;14.50;27.90;;;;;;5119200;28;20207;-67
2021/12/01 03:51:12;;;;;;;0.40;0.30;;;14.50;27.90;;;;;;5119244;28;20246;-67
2021/12/01 03:53:40;;;;;;;0.20;0.20;;;14.50;28.00;;;;;;5119153;28;20225;-67
2021/12/01 03:56:07;;;;;;;0.20;0.20;;;14.50;27.90;;;;;;5118785;27;20207;-67
2021/12/01 03:58:34;;;;;;;0.20;0.20;;;14.50;27.90;;;;;;5119226;28;20511;-67
2021/12/01 04:01:02;;;;;;;0.20;0.20;;;14.50;27.90;;;;;;5118726;28;20598;-67
2021/12/01 04:03:30;;;;;;;0.20;0.20;;;14.50;28.00;;;;;;5118427;28;20537;-67
2021/12/01 04:05:59;;;;;;;0.22;0.22;;;14.50;28.00;;;;;;5118383;28;20264;-67
2021/12/01 04:08:26;;;;;;;0.10;0.10;;;14.40;27.90;;;;;;5119148;28;20575;-67
2021/12/01 04:10:53;;;;;;;0.10;0.10;;;14.40;27.90;;;;;;5118831;27;20231;-67
2021/12/01 04:13:21;;;;;;;0.20;0.20;;;14.40;27.90;;;;;;5118486;28;20214;-67
2021/12/01 04:15:49;;;;;;;0.10;0.10;;;14.40;27.90;;;;;;5118109;28;20225;-67
2021/12/01 04:18:16;;;;;;;0.28;0.20;;;14.40;27.90;;;;;;5118098;28;20251;-67
2021/12/01 04:20:44;;;;;;;0.47;0.20;;;14.40;27.90;;;;;;5118078;28;20207;-67
2021/12/01 04:23:13;;;;;;;0.20;0.20;;;14.40;27.90;;;;;;5118683;28;20601;-67
2021/12/01 04:25:40;;;;;;;0.93;0.20;;;14.40;28.00;;;;;;5118573;28;20268;-67
2021/12/01 04:28:11;;;;;;;0.28;0.20;;;14.40;28.00;;;;;;5118196;28;20209;-67
2021/12/01 04:30:39;;;;;;;0.20;0.20;;;14.40;28.00;;;;;;5117975;28;20223;-67
2021/12/01 04:33:07;;;;;;;0.30;0.20;;;14.40;27.90;;;;;;5118205;28;20510;-67
2021/12/01 04:35:34;;;;;;;0.10;0.10;;;14.40;28.00;;;;;;5118351;28;20258;-67
2021/12/01 04:38:03;;;;;;;0.15;0.15;;;14.40;28.00;;;;;;5117986;28;20570;-67
2021/12/01 04:40:32;;;;;;;0.20;0.20;;;14.40;28.00;;;;;;5117814;28;20562;-67
2021/12/01 04:43:00;;;;;;;0.20;0.20;;;14.30;28.00;;;;;;5117716;28;20199;-67
2021/12/01 04:45:29;;;;;;;0.20;0.20;;;14.30;28.00;;;;;;5117424;28;20202;-67
2021/12/01 04:47:57;;;;;;;0.30;0.20;;;14.30;28.00;;;;;;5118128;28;20209;-67
2021/12/01 04:50:27;;;;;;;0.20;0.20;;;14.30;28.00;;;;;;5117309;28;20222;-67
2021/12/01 04:52:57;;;;;;;0.25;0.20;;;14.30;28.00;;;;;;5115956;28;20199;-67
2021/12/01 04:55:25;;;;;;;0.20;0.20;;;14.30;28.10;;;;;;5118180;28;20214;-67
2021/12/01 04:57:54;;;;;;;0.30;0.30;;;14.30;28.10;;;;;;5116894;28;20247;-67
2021/12/01 05:00:26;;;;;;;0.20;0.20;;;14.30;28.10;;;;;;5117108;28;20677;-67
2021/12/01 05:02:54;;;;;;;0.30;0.20;;;14.30;28.00;;;;;;5117073;28;20229;-67
2021/12/01 05:05:21;;;;;;;4.22;0.50;;;14.30;28.00;;;;;;5116917;28;20206;-67
2021/12/01 05:07:51;;;;;;;0.63;0.20;;;14.30;28.00;;;;;;5117449;28;20203;-67
2021/12/01 05:10:22;;;;;;;0.30;0.30;;;14.30;28.00;;;;;;5116873;28;20642;-67
2021/12/01 05:12:49;;;;;;;0.75;0.10;;;14.20;28.00;;;;;;5117316;28;20288;-67
2021/12/01 05:15:18;;;;;;;0.47;0.20;;;14.20;28.00;;;;;;5117752;28;20546;-67
2021/12/01 05:17:46;;;;;;;0.73;0.20;;;14.20;28.00;;;;;;5117687;28;20578;-67
2021/12/01 05:20:13;;;;;;;0.20;0.15;;;14.20;28.00;;;;;;5117497;28;20228;-67
2021/12/01 05:22:43;;;;;;;0.77;0.20;;;14.20;28.00;;;;;;5117471;28;20203;-67
2021/12/01 05:25:10;;;;;;;0.20;0.20;;;14.20;28.10;;;;;;5117107;28;20305;-67
2021/12/01 05:27:37;;;;;;;0.20;0.20;;;14.20;28.10;;;;;;5117249;28;20517;-67
2021/12/01 05:30:06;;;;;;;0.30;0.30;;;14.20;28.10;;;;;;5115737;28;20285;-67
2021/12/01 05:32:36;;;;;;;0.20;0.20;;;14.10;28.10;;;;;;5120869;28;20203;-67
2021/12/01 05:35:04;;;;;;;0.22;0.10;;;14.10;28.00;;;;;;5121197;28;20736;-67
2021/12/01 05:37:31;;;;;;;0.20;0.20;;;14.20;28.10;;;;;;5121140;28;20613;-67
2021/12/01 05:39:59;;;;;;;0.20;0.20;;;14.10;28.00;;;;;;5120735;28;20207;-67
2021/12/01 05:42:26;;;;;;;0.17;0.17;;;14.10;28.10;;;;;;5121306;28;20309;-67
2021/12/01 05:44:55;;;;;;;0.50;0.20;;;14.10;28.10;;;;;;5120506;28;20203;-67
2021/12/01 05:47:23;;;;;;;0.10;0.10;;;14.10;28.10;;;;;;5120427;28;20807;-67
2021/12/01 05:49:52;;;;;;;0.10;0.10;;;14.10;28.10;;;;;;5120508;28;20292;-67
2021/12/01 05:52:19;;;;;;;0.17;0.17;;;14.10;28.10;;;;;;5120849;28;20578;-68
2021/12/01 05:54:50;;;;;;;0.30;0.30;;;14.10;28.10;;;;;;5120067;28;20204;-67
2021/12/01 05:57:18;;;;;;;0.20;0.20;;;14.10;28.10;;;;;;5119604;28;20549;-67
2021/12/01 05:59:45;;;;;;;0.30;0.30;;;14.10;28.10;;;;;;5118377;28;20610;-67
2021/12/01 06:02:13;;;;;;;0.10;0.10;;;14.10;28.10;;;;;;5118697;28;20199;-67
2021/12/01 06:04:41;;;;;;;0.20;0.17;;;14.10;28.10;;;;;;5119020;28;20264;-67
2021/12/01 06:07:10;;;;;;;0.20;0.20;;;14.10;28.10;;;;;;5118912;27;20210;-67
2021/12/01 06:09:37;;;;;;;0.30;0.20;;;14.10;28.10;;;;;;5118999;27;20209;-67
2021/12/01 06:12:06;;;;;;;0.22;0.20;;;14.00;28.00;;;;;;5118913;28;20207;-67
2021/12/01 06:14:35;;;;;;;0.25;0.20;;;14.10;28.10;;;;;;5119140;28;20242;-68
2021/12/01 06:17:03;;;;;;;0.20;0.20;;;14.00;28.00;;;;;;5118412;28;20251;-67
2021/12/01 06:19:30;;;;;;;0.30;0.25;;;14.00;28.10;;;;;;5118953;28;20229;-67
2021/12/01 06:21:58;;;;;;;0.40;0.20;;;14.00;28.10;;;;;;5118166;28;20199;-67
2021/12/01 06:24:27;;;;;;;0.20;0.20;;;14.00;28.00;;;;;;5117640;28;20230;-68
2021/12/01 06:26:54;;;;;;;0.22;0.22;;;14.00;28.00;;;;;;5118308;28;20199;-67
2021/12/01 06:29:22;;;;;;;0.22;0.22;;;14.00;28.10;;;;;;5119031;28;20242;-67
2021/12/01 06:31:49;;;;;;;0.25;0.25;;;14.00;28.10;;;;;;5118245;28;20227;-67
2021/12/01 06:34:17;;;;;;;0.10;0.10;;;14.00;28.10;;;;;;5117668;28;20297;-68
2021/12/01 06:36:45;;;;;;;0.20;0.20;;;13.90;28.00;;;;;;5118491;28;20297;-67
2021/12/01 06:39:12;;;;;;;0.40;0.40;;;13.90;28.10;;;;;;5118439;28;20207;-67
2021/12/01 06:41:41;;;;;;;0.30;0.30;;;13.90;28.00;;;;;;5118079;28;20712;-67
2021/12/01 06:44:09;;;;;;;0.30;0.30;;;13.90;28.10;;;;;;5117178;28;20203;-67
2021/12/01 06:46:36;;;;;;;0.20;0.20;;;13.90;28.10;;;;;;5117731;28;20214;-67
2021/12/01 06:49:04;;;;;;;0.22;0.20;;;14.00;28.20;;;;;;5117977;28;20203;-67
2021/12/01 06:51:31;;;;;;;0.30;0.30;;;13.90;28.10;;;;;;5117955;28;20226;-67
2021/12/01 06:53:58;;;;;;;0.20;0.20;;;13.90;28.10;;;;;;5118278;28;20214;-67
2021/12/01 06:56:25;;;;;;;0.30;0.30;;;13.90;28.10;;;;;;5118196;27;20195;-67
2021/12/01 06:58:54;;;;;;;0.20;0.20;;;13.90;28.10;;;;;;5117349;27;20241;-67
2021/12/01 07:01:21;;;;;;;0.57;0.20;;;13.90;28.10;;;;;;5117514;28;20571;-67
2021/12/01 07:03:48;;;;;;;0.20;0.20;;;13.90;28.10;;;;;;5117313;28;20590;-67
2021/12/01 07:06:15;;;;;;;0.20;0.20;;;13.90;28.10;;;;;;5117949;28;20230;-67
2021/12/01 07:08:43;;;;;;;0.35;0.30;;;13.90;28.10;;;;;;5117192;28;20223;-67
2021/12/01 07:11:11;;;;;;;0.50;0.50;;;13.80;28.10;;;;;;5116612;28;20222;-67
2021/12/01 07:13:38;;;;;;;0.30;0.30;;;13.90;28.10;;;;;;5117311;28;20318;-67
2021/12/01 07:16:07;;;;;;;0.25;0.25;;;13.80;28.10;;;;;;5117250;28;20203;-67
2021/12/01 07:18:34;;;;;;;0.30;0.30;;;13.80;28.10;;;;;;5116006;28;20221;-67
2021/12/01 07:21:03;;;;;;;0.30;0.30;;;13.80;28.20;;;;;;5117309;28;20199;-67
2021/12/01 07:23:31;;;;;;;0.40;0.40;;;13.80;28.10;;;;;;5117117;28;20578;-67
2021/12/01 07:25:58;;;;;;;0.38;0.38;;;13.80;28.10;;;;;;5117480;28;20206;-67
2021/12/01 07:28:25;;;;;;;0.22;0.22;;;13.80;28.10;;;;;;5116596;27;20203;-67
2021/12/01 07:30:52;;;;;;;0.35;0.30;;;13.80;28.10;;;;;;5116683;28;20235;-67
2021/12/01 07:33:21;;;;;;;0.40;0.35;;;13.80;28.10;;;;;;5117740;28;20199;-67
2021/12/01 07:35:48;;;;;;;0.30;0.30;;;13.80;28.20;;;;;;5117566;27;20640;-67
2021/12/01 07:38:15;;;;;;;0.65;0.30;;;13.80;28.10;;;;;;5116926;28;20221;-67
2021/12/01 07:40:42;;;;;;;0.40;0.40;;;13.80;28.20;;;;;;5116694;28;20195;-67
2021/12/01 07:43:09;;;;;;;0.50;0.30;;;13.70;28.10;;;;;;5116660;28;20606;-67
2021/12/01 07:45:42;;;;;;;0.40;0.40;;;13.70;28.10;;;;;;5116581;28;20195;-67
2021/12/01 07:48:10;;;;;;;0.30;0.30;;;13.70;28.10;;;;;;5116267;28;20238;-67
2021/12/01 07:50:39;;;;;;;0.40;0.40;;;13.70;28.10;;;;;;5115840;28;20227;-67
2021/12/01 07:53:06;;;;;;;0.20;0.20;;;13.70;28.10;;;;;;5116900;28;20216;-67
2021/12/01 07:55:33;;;;;;;0.30;0.30;;;13.70;28.10;;;;;;5117031;28;20203;-67
2021/12/01 07:58:00;;;;;;;0.40;0.40;;;13.70;28.10;;;;;;5115686;28;20239;-67
2021/12/01 08:00:28;;;;;;;0.40;0.40;;;13.70;28.20;;;;;;5116329;28;20199;-67
2021/12/01 08:02:55;;;;;;;0.38;0.35;;;13.70;28.10;;;;;;5116774;28;20217;-67
2021/12/01 08:05:23;;;;;;;0.30;0.30;;;13.70;28.10;;;;;;5116454;28;20222;-67
2021/12/01 08:07:51;;;;;;;0.30;0.30;;;13.70;28.20;;;;;;5116060;28;20203;-67
2021/12/01 08:10:18;;;;;;;0.40;0.32;;;13.70;28.10;;;;;;5116814;28;20284;-67
2021/12/01 08:12:46;;;;;;;0.30;0.30;;;13.70;28.20;;;;;;5115157;28;20203;-67
2021/12/01 08:15:13;;;;;;;0.30;0.30;;;13.70;28.20;;;;;;5116768;28;20199;-67
2021/12/01 08:17:40;;;;;;;0.30;0.30;;;13.70;28.20;;;;;;5116376;28;20203;-67
2021/12/01 08:20:08;;;;;;;0.40;0.30;;;13.60;28.10;;;;;;5115443;28;20214;-67
2021/12/01 08:22:36;;;;;;;0.32;0.32;;;13.60;28.10;;;;;;5116186;28;20222;-67
2021/12/01 08:25:05;;;;;;;0.50;0.47;;;13.60;28.20;;;;;;5116198;28;20203;-67
2021/12/01 08:27:32;;;;;;;0.38;0.30;;;13.60;28.10;;;;;;5116024;28;20203;-67
2021/12/01 08:29:59;;;;;;;0.40;0.40;;;13.60;28.20;;;;;;5115544;28;20203;-67
2021/12/01 08:32:26;;;;;;;0.30;0.30;;;13.60;28.10;;;;;;5116070;28;20237;-67
2021/12/01 08:34:53;;;;;;;0.35;0.30;;;13.60;28.20;;;;;;5116001;28;20203;-66
2021/12/01 08:37:22;;;;;;;0.40;0.40;;;13.60;28.20;;;;;;5116349;28;20203;-67
2021/12/01 08:39:50;;;;;;;0.65;0.38;;;13.60;28.20;;;;;;5114093;28;20206;-67
2021/12/01 08:42:21;;;;;;;0.40;0.40;;;13.60;28.20;;;;;;5114688;28;20210;-68
2021/12/01 08:44:48;;;;;;;0.38;0.35;;;13.60;28.20;;;;;;5115557;28;20223;-67
2021/12/01 08:47:16;;;;;;;0.45;0.40;;;13.60;28.20;;;;;;5115383;28;20210;-67
2021/12/01 08:49:44;;;;;;;0.30;0.30;;;13.60;28.20;;;;;;5114356;28;20222;-67
2021/12/01 08:52:12;;;;;;;0.30;0.30;;;13.60;28.20;;;;;;5115717;28;20507;-67
2021/12/01 08:54:40;;;;;;;0.40;0.30;;;13.50;28.20;;;;;;5116057;28;20202;-67
2021/12/01 08:57:08;;;;;;;0.40;0.40;;;13.60;28.20;;;;;;5114656;28;20246;-67
2021/12/01 08:59:37;;;;;;;1.13;0.63;;;13.50;28.10;;;;;;5114747;28;20203;-67
2021/12/01 09:02:05;;;;;;;0.43;0.43;;;13.50;28.20;;;;;;5115290;28;20657;-67
2021/12/01 09:04:32;;;;;;;1.08;0.40;;;13.50;28.20;;;;;;5115296;28;20497;-67
2021/12/01 09:06:59;;;;;;;0.88;0.40;;;13.50;28.30;;;;;;5113132;28;20194;-67
2021/12/01 09:09:26;;;;;;;0.30;0.30;;;13.50;28.30;;;;;;5115035;28;20203;-67
2021/12/01 09:11:54;;;;;;;0.43;0.40;;;13.50;28.40;;;;;;5114977;28;20234;-67
2021/12/01 09:14:23;;;;;;;0.55;0.40;;;13.60;28.40;;;;;;5115944;28;20605;-67
2021/12/01 09:16:55;;;;;;;0.40;0.40;;;13.60;28.50;;;;;;5116177;28;20211;-67
2021/12/01 09:19:23;;;;;;;0.45;0.30;;;13.60;28.50;;;;;;5115052;28;20245;-67
2021/12/01 09:21:50;;;;;;;0.43;0.40;;;13.60;28.50;;;;;;5115505;28;20211;-67
2021/12/01 09:24:20;;;;;;;0.90;0.40;;;13.60;28.60;;;;;;5116295;28;20203;-67
2021/12/01 09:26:48;;;;;;;0.47;0.30;;;13.60;28.70;;;;;;5115120;28;20202;-67
2021/12/01 09:29:15;;;;;;;0.70;0.40;;;13.60;28.60;;;;;;5114381;28;20866;-67
2021/12/01 09:31:42;;;;;;;0.98;0.40;;;13.60;28.70;;;;;;5114625;28;20230;-67
2021/12/01 09:34:10;;;;;;;0.95;0.30;;;13.60;28.70;;;;;;5114305;28;20199;-67
2021/12/01 09:36:38;;;;;;;0.80;0.47;;;13.60;28.80;;;;;;5115434;28;20507;-67
2021/12/01 09:39:05;;;;;;;0.63;0.35;;;13.60;28.90;;;;;;5115255;28;20199;-67
2021/12/01 09:41:33;;;;;;;0.75;0.47;;;13.60;28.90;;;;;;5115147;28;20218;-67
2021/12/01 09:44:00;;;;;;;1.95;0.50;;;13.60;28.90;;;;;;5115126;28;20202;-67
2021/12/01 09:46:30;;;;;;;0.32;0.30;;;13.70;29.00;;;;;;5097612;28;20206;-67
2021/12/01 09:48:58;;;;;;;0.45;0.45;;;13.70;29.00;;;;;;5093636;28;20211;-67
2021/12/01 09:51:26;;;;;;;0.70;0.45;;;13.70;29.00;;;;;;5094048;28;20246;-67
2021/12/01 09:53:55;;;;;;;0.90;0.47;;;13.70;29.10;;;;;;5094279;28;20204;-67
2021/12/01 09:56:24;;;;;;;0.95;0.50;;;13.70;29.20;;;;;;5095589;28;20211;-67
2021/12/01 09:58:52;;;;;;;0.90;0.40;;;13.70;29.10;;;;;;5113170;28;20246;-67
2021/12/01 10:01:21;;;;;;;0.88;0.55;;;13.70;29.20;;;;;;5114317;28;20206;-67
2021/12/01 10:03:48;;;;;;;0.90;0.30;;;13.70;29.20;;;;;;5114918;28;20382;-67
2021/12/01 10:06:18;;;;;;;0.60;0.32;;;13.70;29.20;;;;;;5114663;28;20609;-67
2021/12/01 10:08:49;;;;;;;0.40;0.40;;;13.70;29.20;;;;;;5114857;28;20214;-67
2021/12/01 10:11:18;;;;;;;1.25;0.57;;;13.70;29.30;;;;;;5114768;28;20225;-67
2021/12/01 10:13:47;;;;;;;0.80;0.40;;;13.70;29.30;;;;;;5114563;28;20229;-67
2021/12/01 10:16:16;;;;;;;0.50;0.30;;;13.70;29.30;;;;;;5114251;28;20199;-67
2021/12/01 10:18:45;;;;;;;0.60;0.40;;;13.70;29.30;;;;;;5115716;28;20756;-67
2021/12/01 10:21:14;;;;;;;1.10;0.52;;;13.70;29.40;;;;;;5117803;28;20206;-67
2021/12/01 10:23:45;;;;;;;3.95;3.53;;;13.70;29.50;;;;;;5117232;28;20194;-67
2021/12/01 10:26:17;;;;;;;3.60;2.80;;;13.70;29.40;;;;;;5117294;28;20199;-67
2021/12/01 10:28:47;;;;;;;2.38;2.17;;;13.70;29.40;;;;;;5117407;28;20210;-67
2021/12/01 10:31:15;;;;;;;2.60;2.40;;;13.70;29.50;;;;;;5117119;28;20238;-67
2021/12/01 10:33:43;;;;;;;2.55;2.22;;;13.70;29.50;;;;;;5117346;28;20203;-67
2021/12/01 10:36:11;;;;;;;3.28;2.00;;;13.70;29.50;;;;;;5117944;28;20211;-67
2021/12/01 10:38:40;;;;;;;3.30;2.08;;;13.70;29.50;;;;;;5118178;28;20210;-67
2021/12/01 10:41:10;;;;;;;2.20;2.00;;;13.80;29.70;;;;;;5118199;28;20214;-67
2021/12/01 10:43:43;;;;;;;3.40;1.77;;;13.80;29.60;;;;;;5117858;28;20210;-67
2021/12/01 10:46:12;;;;;;;2.97;1.90;;;13.80;29.70;;;;;;5117618;28;20201;-67
2021/12/01 10:48:41;;;;;;;4.00;1.40;;;13.80;29.70;;;;;;5117311;28;20210;-67
2021/12/01 10:51:12;;;;;;;3.00;1.95;;;13.80;30.40;;;;;;5116436;28;20722;-67
2021/12/01 10:53:39;;;;;;;3.05;1.60;;;13.80;29.70;;;;;;5116943;28;20213;-67
2021/12/01 10:56:08;;;;;;;1.40;1.30;;;13.80;29.70;;;;;;5115866;28;20210;-67
2021/12/01 10:58:37;;;;;;;2.17;1.33;;;13.80;29.80;;;;;;5114963;28;20303;-67
2021/12/01 11:01:19;;;;;;;1.85;1.27;;;13.80;29.80;;;;;;5116497;28;20706;-67
2021/12/01 11:03:47;;;;;;;1.63;1.38;;;13.80;29.80;;;;;;5117021;28;20267;-67
2021/12/01 11:06:19;;;;;;;1.33;1.08;;;13.80;29.70;;;;;;5117236;28;20195;-67
2021/12/01 11:08:55;;;;;;;1.20;1.10;;;13.80;29.80;;;;;;5115983;28;20198;-67
2021/12/01 11:11:27;;;;;;;2.03;1.08;;;13.80;29.80;;;;;;5116010;28;20237;-67
2021/12/01 11:13:55;;;;;;;1.58;1.08;;;13.80;29.80;;;;;;5116329;28;20214;-67
2021/12/01 11:16:24;;;;;;;2.08;1.20;;;13.80;29.80;;;;;;5116277;28;20602;-67
2021/12/01 11:18:52;;;;;;;1.70;1.60;;;13.80;29.80;;;;;;5116204;28;20203;-67
2021/12/01 11:21:22;;;;;;;1.77;1.50;;;13.80;29.80;;;;;;5117550;28;20203;-67
2021/12/01 11:23:50;;;;;;;1.40;1.10;;;13.80;29.80;;;;;;5117051;27;20210;-67
2021/12/01 11:26:20;;;;;;;2.38;1.00;;;13.90;30.00;;;;;;5116637;28;20633;-67
2021/12/01 11:28:50;;;;;;;1.60;1.02;;;13.90;30.00;;;;;;5115602;28;20199;-67
2021/12/01 11:31:18;;;;;;;1.27;1.15;;;13.90;29.90;;;;;;5116759;28;20207;-67
2021/12/01 11:33:47;;;;;;;0.95;0.88;;;13.90;29.90;;;;;;5116909;28;20198;-67
2021/12/01 11:36:17;;;;;;;1.10;1.00;;;13.90;29.90;;;;;;5116169;28;20234;-67
2021/12/01 11:38:49;;;;;;;1.98;1.08;;;13.90;29.90;;;;;;5116070;28;20217;-67
2021/12/01 11:41:16;;;;;;;0.98;0.82;;;13.90;29.90;;;;;;5115831;27;20213;-67
2021/12/01 11:43:43;;;;;;;1.10;1.00;;;13.90;29.90;;;;;;5115864;28;20199;-67
2021/12/01 11:46:11;;;;;;;0.80;0.70;;;13.90;29.80;;;;;;5116268;28;20214;-67
2021/12/01 11:48:43;;;;;;;1.55;0.82;;;13.90;29.80;;;;;;5115349;28;20210;-67
2021/12/01 11:51:15;;;;;;;0.98;0.90;;;13.90;29.80;;;;;;5115521;28;20645;-67
2021/12/01 11:53:45;;;;;;;0.98;0.90;;;13.90;29.80;;;;;;5115010;28;20199;-67
2021/12/01 11:56:18;;;;;;;1.23;0.90;;;13.90;29.80;;;;;;5116308;27;20206;-67
2021/12/01 11:58:56;;;;;;;1.13;0.80;;;13.90;29.80;;;;;;5114169;28;20245;-67
2021/12/01 12:01:44;;;;;;;1.02;0.70;;;13.90;29.80;;;;;;5112820;28;20259;-67
2021/12/01 12:04:40;;;;;;;1.05;0.95;;;13.90;29.80;;;;;;5092378;28;20218;-66
2021/12/01 12:07:11;;;;;;;0.65;0.63;;;13.90;29.80;;;;;;5094090;28;20230;-67
2021/12/01 12:09:39;;;;;;;0.70;0.63;;;13.90;29.80;;;;;;5090895;28;20207;-66
2021/12/01 12:12:20;;;;;;;0.80;0.80;;;13.90;29.80;;;;;;5093583;28;20238;-67
2021/12/01 12:14:53;;;;;;;0.68;0.68;;;13.90;29.90;;;;;;5093251;28;20286;-67
2021/12/01 12:17:23;;;;;;;0.80;0.70;;;13.90;29.90;;;;;;5092987;28;20571;-67
2021/12/01 12:19:56;;;;;;;43.05;33.50;;;13.90;29.80;;;;;;5092095;28;20580;-66
2021/12/01 12:22:32;;;;;;;41.40;31.17;;;13.90;29.80;;;;;;5094694;28;20210;-66
2021/12/01 12:24:59;;;;;;;27.00;20.73;;;13.90;29.90;;;;;;5094818;28;20207;-66
2021/12/01 12:27:35;;;;;;;23.08;18.17;;;14.00;29.90;;;;;;5095223;28;20215;-66
2021/12/01 12:30:04;;;;;;;23.27;18.63;;;13.90;29.90;;;;;;5112374;28;20199;-67
2021/12/01 12:32:32;;;;;;;22.25;17.20;;;14.00;29.90;;;;;;5114700;28;20233;-66
2021/12/01 12:35:02;;;;;;;20.85;16.02;;;14.00;30.00;;;;;;5114761;28;20650;-66
2021/12/01 12:37:33;;;;;;;19.48;14.95;;;14.00;30.00;;;;;;5115450;28;20570;-66
2021/12/01 12:40:03;;;;;;;19.80;14.73;;;14.00;30.00;;;;;;5114549;28;20199;-66
2021/12/01 12:42:30;;;;;;;19.73;14.88;;;14.00;30.00;;;;;;5114447;28;20199;-67
2021/12/01 12:44:58;;;;;;;18.02;14.52;;;14.00;30.00;;;;;;5115064;28;20211;-66
2021/12/01 12:47:30;;;;;;;18.83;13.98;;;14.00;30.00;;;;;;5113354;28;20270;-67
2021/12/01 12:50:02;;;;;;;16.98;12.80;;;14.00;30.00;;;;;;5112855;28;20207;-66
2021/12/01 12:52:33;;;;;;;15.73;12.60;;;14.10;30.10;;;;;;5113804;28;20299;-66
2021/12/01 12:55:02;;;;;;;15.85;12.25;;;14.10;30.20;;;;;;5113753;28;20338;-67
2021/12/01 12:57:48;;;;;;;14.77;11.60;;;14.10;30.00;;;;;;5112542;28;20218;-67